sensor_id;sensor_type;location;lat;lon;timestamp;temperature;humidity
77523;SHT31;66637;-29.628;-49.938;2023-06-14T00:01:01;13.71;82.31
77523;SHT31;66637;-29.628;-49.938;2023-06-14T00:03:35;13.72;82.19
77523;SHT31;66637;-29.628;-49.938;2023-06-14T00:06:13;13.77;82.18
77523;SHT31;66637;-29.628;-49.938;2023-06-14T00:08:45;13.77;82.10
77523;SHT31;66637;-29.628;-49.938;2023-06-14T00:11:20;13.72;82.12
77523;SHT31;66637;-29.628;-49.938;2023-06-14T00:13:53;13.75;82.08
77523;SHT31;66637;-29.628;-49.938;2023-06-14T00:16:24;13.74;82.05
77523;SHT31;66637;-29.628;-49.938;2023-06-14T00:18:57;13.71;82.18
77523;SHT31;66637;-29.628;-49.938;2023-06-14T00:21:32;13.74;82.17
77523;SHT31;66637;-29.628;-49.938;2023-06-14T00:24:08;13.78;82.16
77523;SHT31;66637;-29.628;-49.938;2023-06-14T00:26:41;13.78;82.35
77523;SHT31;66637;-29.628;-49.938;2023-06-14T00:29:13;13.79;82.33
77523;SHT31;66637;-29.628;-49.938;2023-06-14T00:31:45;13.75;82.59
77523;SHT31;66637;-29.628;-49.938;2023-06-14T00:34:19;13.78;82.54
77523;SHT31;66637;-29.628;-49.938;2023-06-14T00:36:53;13.78;82.56
77523;SHT31;66637;-29.628;-49.938;2023-06-14T00:39:25;13.78;82.54
77523;SHT31;66637;-29.628;-49.938;2023-06-14T00:41:57;13.70;82.74
77523;SHT31;66637;-29.628;-49.938;2023-06-14T00:44:29;13.71;82.64
77523;SHT31;66637;-29.628;-49.938;2023-06-14T00:47:06;13.71;82.87
77523;SHT31;66637;-29.628;-49.938;2023-06-14T00:49:42;13.71;82.77
77523;SHT31;66637;-29.628;-49.938;2023-06-14T00:52:16;13.72;82.89
77523;SHT31;66637;-29.628;-49.938;2023-06-14T00:54:49;13.75;82.78
77523;SHT31;66637;-29.628;-49.938;2023-06-14T00:57:20;13.74;82.74
77523;SHT31;66637;-29.628;-49.938;2023-06-14T00:59:53;13.75;82.82
77523;SHT31;66637;-29.628;-49.938;2023-06-14T01:02:27;13.78;82.90
77523;SHT31;66637;-29.628;-49.938;2023-06-14T01:05:01;13.81;82.78
77523;SHT31;66637;-29.628;-49.938;2023-06-14T01:13:33;13.83;82.66
77523;SHT31;66637;-29.628;-49.938;2023-06-14T01:16:10;13.79;82.22
77523;SHT31;66637;-29.628;-49.938;2023-06-14T01:18:44;13.82;82.42
77523;SHT31;66637;-29.628;-49.938;2023-06-14T01:21:24;13.83;82.50
77523;SHT31;66637;-29.628;-49.938;2023-06-14T01:23:59;13.82;82.30
77523;SHT31;66637;-29.628;-49.938;2023-06-14T01:26:34;13.79;82.43
77523;SHT31;66637;-29.628;-49.938;2023-06-14T01:29:08;13.81;82.56
77523;SHT31;66637;-29.628;-49.938;2023-06-14T01:31:41;13.81;82.40
77523;SHT31;66637;-29.628;-49.938;2023-06-14T01:34:12;13.83;82.36
77523;SHT31;66637;-29.628;-49.938;2023-06-14T01:36:44;13.83;82.55
77523;SHT31;66637;-29.628;-49.938;2023-06-14T01:39:17;13.81;82.58
77523;SHT31;66637;-29.628;-49.938;2023-06-14T01:41:49;13.82;82.54
77523;SHT31;66637;-29.628;-49.938;2023-06-14T01:44:21;13.79;82.66
77523;SHT31;66637;-29.628;-49.938;2023-06-14T01:46:53;13.78;82.59
77523;SHT31;66637;-29.628;-49.938;2023-06-14T01:49:26;13.82;82.57
77523;SHT31;66637;-29.628;-49.938;2023-06-14T01:51:56;13.83;82.54
77523;SHT31;66637;-29.628;-49.938;2023-06-14T01:54:29;13.78;82.53
77523;SHT31;66637;-29.628;-49.938;2023-06-14T01:57:02;13.83;82.53
77523;SHT31;66637;-29.628;-49.938;2023-06-14T01:59:37;13.79;82.53
77523;SHT31;66637;-29.628;-49.938;2023-06-14T02:02:09;13.77;82.53
77523;SHT31;66637;-29.628;-49.938;2023-06-14T02:04:41;13.82;82.43
77523;SHT31;66637;-29.628;-49.938;2023-06-14T02:07:12;13.81;82.46
77523;SHT31;66637;-29.628;-49.938;2023-06-14T02:09:42;13.79;82.49
77523;SHT31;66637;-29.628;-49.938;2023-06-14T02:12:14;13.77;82.51
77523;SHT31;66637;-29.628;-49.938;2023-06-14T02:14:44;13.79;82.50
77523;SHT31;66637;-29.628;-49.938;2023-06-14T02:17:17;13.82;82.53
77523;SHT31;66637;-29.628;-49.938;2023-06-14T02:19:48;13.79;82.47
77523;SHT31;66637;-29.628;-49.938;2023-06-14T02:22:21;13.78;82.59
77523;SHT31;66637;-29.628;-49.938;2023-06-14T02:24:52;13.82;82.56
77523;SHT31;66637;-29.628;-49.938;2023-06-14T02:27:29;13.81;82.58
77523;SHT31;66637;-29.628;-49.938;2023-06-14T02:30:01;13.82;82.39
77523;SHT31;66637;-29.628;-49.938;2023-06-14T02:32:35;13.83;82.57
77523;SHT31;66637;-29.628;-49.938;2023-06-14T02:35:07;13.83;82.72
77523;SHT31;66637;-29.628;-49.938;2023-06-14T02:37:38;13.81;82.72
77523;SHT31;66637;-29.628;-49.938;2023-06-14T02:40:12;13.86;82.78
77523;SHT31;66637;-29.628;-49.938;2023-06-14T02:42:43;13.86;82.72
77523;SHT31;66637;-29.628;-49.938;2023-06-14T02:45:14;13.86;82.67
77523;SHT31;66637;-29.628;-49.938;2023-06-14T02:47:45;13.86;82.70
77523;SHT31;66637;-29.628;-49.938;2023-06-14T02:50:20;13.89;82.79
77523;SHT31;66637;-29.628;-49.938;2023-06-14T02:52:54;13.88;82.67
77523;SHT31;66637;-29.628;-49.938;2023-06-14T02:55:26;13.89;82.83
77523;SHT31;66637;-29.628;-49.938;2023-06-14T02:57:58;13.89;82.86
77523;SHT31;66637;-29.628;-49.938;2023-06-14T03:00:30;13.91;82.79
77523;SHT31;66637;-29.628;-49.938;2023-06-14T03:03:02;13.89;82.68
77523;SHT31;66637;-29.628;-49.938;2023-06-14T03:05:35;13.89;82.73
77523;SHT31;66637;-29.628;-49.938;2023-06-14T03:08:07;13.91;82.81
77523;SHT31;66637;-29.628;-49.938;2023-06-14T03:10:38;13.92;82.64
77523;SHT31;66637;-29.628;-49.938;2023-06-14T03:13:10;13.92;82.74
77523;SHT31;66637;-29.628;-49.938;2023-06-14T03:15:44;13.94;82.84
77523;SHT31;66637;-29.628;-49.938;2023-06-14T03:18:28;13.89;82.98
77523;SHT31;66637;-29.628;-49.938;2023-06-14T03:21:02;13.86;83.20
77523;SHT31;66637;-29.628;-49.938;2023-06-14T03:23:35;13.89;83.21
77523;SHT31;66637;-29.628;-49.938;2023-06-14T03:26:06;13.85;83.22
77523;SHT31;66637;-29.628;-49.938;2023-06-14T03:28:36;13.91;83.26
77523;SHT31;66637;-29.628;-49.938;2023-06-14T03:31:07;13.88;83.34
77523;SHT31;66637;-29.628;-49.938;2023-06-14T03:33:42;13.89;83.35
77523;SHT31;66637;-29.628;-49.938;2023-06-14T03:36:15;13.95;83.43
77523;SHT31;66637;-29.628;-49.938;2023-06-14T03:38:47;13.97;83.47
77523;SHT31;66637;-29.628;-49.938;2023-06-14T03:41:18;13.95;83.56
77523;SHT31;66637;-29.628;-49.938;2023-06-14T03:43:52;13.95;83.54
77523;SHT31;66637;-29.628;-49.938;2023-06-14T03:46:23;13.97;83.67
77523;SHT31;66637;-29.628;-49.938;2023-06-14T03:48:54;13.98;83.79
77523;SHT31;66637;-29.628;-49.938;2023-06-14T03:51:28;13.99;83.79
77523;SHT31;66637;-29.628;-49.938;2023-06-14T03:54:01;14.04;83.68
77523;SHT31;66637;-29.628;-49.938;2023-06-14T03:56:55;14.02;83.62
77523;SHT31;66637;-29.628;-49.938;2023-06-14T03:59:27;13.97;83.67
77523;SHT31;66637;-29.628;-49.938;2023-06-14T04:02:05;14.04;83.73
77523;SHT31;66637;-29.628;-49.938;2023-06-14T04:04:38;14.04;83.61
77523;SHT31;66637;-29.628;-49.938;2023-06-14T04:07:08;14.05;83.54
77523;SHT31;66637;-29.628;-49.938;2023-06-14T04:09:40;14.08;83.49
77523;SHT31;66637;-29.628;-49.938;2023-06-14T04:12:12;14.05;83.37
77523;SHT31;66637;-29.628;-49.938;2023-06-14T04:14:43;14.05;83.34
77523;SHT31;66637;-29.628;-49.938;2023-06-14T04:17:14;14.09;83.36
77523;SHT31;66637;-29.628;-49.938;2023-06-14T04:19:46;14.05;83.21
77523;SHT31;66637;-29.628;-49.938;2023-06-14T04:22:19;14.05;83.25
77523;SHT31;66637;-29.628;-49.938;2023-06-14T04:24:51;14.01;83.27
77523;SHT31;66637;-29.628;-49.938;2023-06-14T04:27:33;14.04;83.22
77523;SHT31;66637;-29.628;-49.938;2023-06-14T04:30:15;14.01;83.15
77523;SHT31;66637;-29.628;-49.938;2023-06-14T04:32:50;13.98;83.18
77523;SHT31;66637;-29.628;-49.938;2023-06-14T04:35:24;13.97;83.29
77523;SHT31;66637;-29.628;-49.938;2023-06-14T04:37:57;13.98;83.36
77523;SHT31;66637;-29.628;-49.938;2023-06-14T04:40:29;13.97;83.35
77523;SHT31;66637;-29.628;-49.938;2023-06-14T04:43:02;13.97;83.45
77523;SHT31;66637;-29.628;-49.938;2023-06-14T04:45:44;13.97;83.48
77523;SHT31;66637;-29.628;-49.938;2023-06-14T04:48:16;13.95;83.53
77523;SHT31;66637;-29.628;-49.938;2023-06-14T04:50:50;13.91;83.61
77523;SHT31;66637;-29.628;-49.938;2023-06-14T04:53:25;13.95;83.61
77523;SHT31;66637;-29.628;-49.938;2023-06-14T04:56:00;13.94;83.66
77523;SHT31;66637;-29.628;-49.938;2023-06-14T04:58:36;13.95;83.59
77523;SHT31;66637;-29.628;-49.938;2023-06-14T05:01:10;13.95;83.38
77523;SHT31;66637;-29.628;-49.938;2023-06-14T05:03:40;13.95;83.44
77523;SHT31;66637;-29.628;-49.938;2023-06-14T05:06:13;13.97;83.47
77523;SHT31;66637;-29.628;-49.938;2023-06-14T05:08:45;13.97;83.49
77523;SHT31;66637;-29.628;-49.938;2023-06-14T05:11:17;13.94;83.46
77523;SHT31;66637;-29.628;-49.938;2023-06-14T05:13:47;13.94;83.47
77523;SHT31;66637;-29.628;-49.938;2023-06-14T05:16:19;13.94;83.40
77523;SHT31;66637;-29.628;-49.938;2023-06-14T05:18:50;13.95;83.31
77523;SHT31;66637;-29.628;-49.938;2023-06-14T05:21:23;13.94;83.52
77523;SHT31;66637;-29.628;-49.938;2023-06-14T05:23:56;13.98;83.38
77523;SHT31;66637;-29.628;-49.938;2023-06-14T05:26:28;13.94;83.35
77523;SHT31;66637;-29.628;-49.938;2023-06-14T05:28:59;13.91;83.46
77523;SHT31;66637;-29.628;-49.938;2023-06-14T05:31:33;13.97;83.34
77523;SHT31;66637;-29.628;-49.938;2023-06-14T05:34:42;13.95;83.37
77523;SHT31;66637;-29.628;-49.938;2023-06-14T05:37:13;13.95;83.35
77523;SHT31;66637;-29.628;-49.938;2023-06-14T05:39:43;13.94;83.32
77523;SHT31;66637;-29.628;-49.938;2023-06-14T05:42:15;13.95;83.38
77523;SHT31;66637;-29.628;-49.938;2023-06-14T05:44:47;13.97;83.37
77523;SHT31;66637;-29.628;-49.938;2023-06-14T05:47:18;13.95;83.35
77523;SHT31;66637;-29.628;-49.938;2023-06-14T05:49:49;13.92;83.30
77523;SHT31;66637;-29.628;-49.938;2023-06-14T05:52:45;13.92;83.39
77523;SHT31;66637;-29.628;-49.938;2023-06-14T05:55:16;13.92;83.54
77523;SHT31;66637;-29.628;-49.938;2023-06-14T05:57:48;13.94;83.40
77523;SHT31;66637;-29.628;-49.938;2023-06-14T06:00:23;13.91;83.56
77523;SHT31;66637;-29.628;-49.938;2023-06-14T06:02:54;13.91;83.55
77523;SHT31;66637;-29.628;-49.938;2023-06-14T06:05:29;13.88;83.67
77523;SHT31;66637;-29.628;-49.938;2023-06-14T06:07:59;13.89;83.73
77523;SHT31;66637;-29.628;-49.938;2023-06-14T06:10:34;13.88;83.74
77523;SHT31;66637;-29.628;-49.938;2023-06-14T06:13:05;13.89;83.71
77523;SHT31;66637;-29.628;-49.938;2023-06-14T06:15:39;13.85;83.79
77523;SHT31;66637;-29.628;-49.938;2023-06-14T06:18:09;13.88;83.74
77523;SHT31;66637;-29.628;-49.938;2023-06-14T06:20:40;13.88;83.73
77523;SHT31;66637;-29.628;-49.938;2023-06-14T06:23:11;13.88;83.69
77523;SHT31;66637;-29.628;-49.938;2023-06-14T06:25:43;13.92;83.67
77523;SHT31;66637;-29.628;-49.938;2023-06-14T06:28:13;13.92;83.70
77523;SHT31;66637;-29.628;-49.938;2023-06-14T06:30:45;13.91;83.53
77523;SHT31;66637;-29.628;-49.938;2023-06-14T06:33:17;13.89;83.67
77523;SHT31;66637;-29.628;-49.938;2023-06-14T06:35:48;13.88;83.70
77523;SHT31;66637;-29.628;-49.938;2023-06-14T06:38:19;13.86;83.97
77523;SHT31;66637;-29.628;-49.938;2023-06-14T06:40:51;13.91;83.96
77523;SHT31;66637;-29.628;-49.938;2023-06-14T06:43:21;13.94;83.75
77523;SHT31;66637;-29.628;-49.938;2023-06-14T06:45:53;13.88;83.71
77523;SHT31;66637;-29.628;-49.938;2023-06-14T06:48:24;13.92;83.78
77523;SHT31;66637;-29.628;-49.938;2023-06-14T06:50:54;13.91;83.74
77523;SHT31;66637;-29.628;-49.938;2023-06-14T06:53:26;13.92;83.79
77523;SHT31;66637;-29.628;-49.938;2023-06-14T06:56:10;13.86;83.86
77523;SHT31;66637;-29.628;-49.938;2023-06-14T06:58:46;13.88;84.03
77523;SHT31;66637;-29.628;-49.938;2023-06-14T07:01:19;13.92;83.97
77523;SHT31;66637;-29.628;-49.938;2023-06-14T07:03:51;13.92;83.99
77523;SHT31;66637;-29.628;-49.938;2023-06-14T07:06:25;13.95;84.08
77523;SHT31;66637;-29.628;-49.938;2023-06-14T07:08:58;13.91;84.00
77523;SHT31;66637;-29.628;-49.938;2023-06-14T07:11:32;13.95;84.18
77523;SHT31;66637;-29.628;-49.938;2023-06-14T07:14:02;13.94;84.10
77523;SHT31;66637;-29.628;-49.938;2023-06-14T07:16:33;13.98;84.16
77523;SHT31;66637;-29.628;-49.938;2023-06-14T07:19:04;13.97;84.27
77523;SHT31;66637;-29.628;-49.938;2023-06-14T07:21:35;13.95;84.28
77523;SHT31;66637;-29.628;-49.938;2023-06-14T07:24:10;13.99;84.32
77523;SHT31;66637;-29.628;-49.938;2023-06-14T07:26:41;14.05;84.27
77523;SHT31;66637;-29.628;-49.938;2023-06-14T07:29:15;14.04;84.12
77523;SHT31;66637;-29.628;-49.938;2023-06-14T07:31:47;14.05;84.20
77523;SHT31;66637;-29.628;-49.938;2023-06-14T07:34:18;14.05;84.15
77523;SHT31;66637;-29.628;-49.938;2023-06-14T07:36:48;14.06;84.18
77523;SHT31;66637;-29.628;-49.938;2023-06-14T07:39:20;14.05;84.20
77523;SHT31;66637;-29.628;-49.938;2023-06-14T07:41:50;14.06;84.25
77523;SHT31;66637;-29.628;-49.938;2023-06-14T07:44:24;14.06;84.27
77523;SHT31;66637;-29.628;-49.938;2023-06-14T07:46:57;14.05;84.42
77523;SHT31;66637;-29.628;-49.938;2023-06-14T07:49:31;14.02;84.51
77523;SHT31;66637;-29.628;-49.938;2023-06-14T07:52:01;14.05;84.60
77523;SHT31;66637;-29.628;-49.938;2023-06-14T07:54:33;14.04;84.64
77523;SHT31;66637;-29.628;-49.938;2023-06-14T07:57:03;14.09;84.62
77523;SHT31;66637;-29.628;-49.938;2023-06-14T07:59:35;14.08;84.64
77523;SHT31;66637;-29.628;-49.938;2023-06-14T08:02:07;14.06;84.70
77523;SHT31;66637;-29.628;-49.938;2023-06-14T08:04:39;14.08;84.61
77523;SHT31;66637;-29.628;-49.938;2023-06-14T08:07:11;14.06;84.80
77523;SHT31;66637;-29.628;-49.938;2023-06-14T08:09:41;14.05;84.97
77523;SHT31;66637;-29.628;-49.938;2023-06-14T08:12:12;14.05;85.14
77523;SHT31;66637;-29.628;-49.938;2023-06-14T08:14:46;14.04;85.04
77523;SHT31;66637;-29.628;-49.938;2023-06-14T08:17:29;14.04;85.11
77523;SHT31;66637;-29.628;-49.938;2023-06-14T08:20:00;14.08;85.23
77523;SHT31;66637;-29.628;-49.938;2023-06-14T08:22:31;14.06;85.21
77523;SHT31;66637;-29.628;-49.938;2023-06-14T08:25:04;14.09;85.21
77523;SHT31;66637;-29.628;-49.938;2023-06-14T08:27:34;14.13;85.18
77523;SHT31;66637;-29.628;-49.938;2023-06-14T08:30:06;14.08;85.23
77523;SHT31;66637;-29.628;-49.938;2023-06-14T08:32:38;14.08;85.24
77523;SHT31;66637;-29.628;-49.938;2023-06-14T08:35:10;14.15;85.32
77523;SHT31;66637;-29.628;-49.938;2023-06-14T08:37:43;14.12;85.26
77523;SHT31;66637;-29.628;-49.938;2023-06-14T08:40:23;14.13;85.37
77523;SHT31;66637;-29.628;-49.938;2023-06-14T08:42:55;14.15;85.25
77523;SHT31;66637;-29.628;-49.938;2023-06-14T08:45:26;14.12;85.42
77523;SHT31;66637;-29.628;-49.938;2023-06-14T08:48:00;14.13;85.51
77523;SHT31;66637;-29.628;-49.938;2023-06-14T08:50:32;14.15;85.61
77523;SHT31;66637;-29.628;-49.938;2023-06-14T08:53:08;14.16;85.50
77523;SHT31;66637;-29.628;-49.938;2023-06-14T08:55:41;14.13;85.55
77523;SHT31;66637;-29.628;-49.938;2023-06-14T08:58:16;14.21;85.51
77523;SHT31;66637;-29.628;-49.938;2023-06-14T09:00:48;14.23;85.50
77523;SHT31;66637;-29.628;-49.938;2023-06-14T09:03:20;14.18;85.51
77523;SHT31;66637;-29.628;-49.938;2023-06-14T09:05:53;14.23;85.57
77523;SHT31;66637;-29.628;-49.938;2023-06-14T09:08:25;14.21;85.62
77523;SHT31;66637;-29.628;-49.938;2023-06-14T09:11:02;14.22;85.67
77523;SHT31;66637;-29.628;-49.938;2023-06-14T09:13:46;14.13;85.73
77523;SHT31;66637;-29.628;-49.938;2023-06-14T09:16:26;14.15;85.91
77523;SHT31;66637;-29.628;-49.938;2023-06-14T09:19:03;14.23;85.85
77523;SHT31;66637;-29.628;-49.938;2023-06-14T09:21:35;14.23;85.82
77523;SHT31;66637;-29.628;-49.938;2023-06-14T09:24:14;14.29;85.81
77523;SHT31;66637;-29.628;-49.938;2023-06-14T09:26:53;14.36;85.71
77523;SHT31;66637;-29.628;-49.938;2023-06-14T09:29:25;14.34;85.58
77523;SHT31;66637;-29.628;-49.938;2023-06-14T09:31:56;14.40;85.66
77523;SHT31;66637;-29.628;-49.938;2023-06-14T09:34:26;14.37;85.82
77523;SHT31;66637;-29.628;-49.938;2023-06-14T09:36:57;14.30;85.62
77523;SHT31;66637;-29.628;-49.938;2023-06-14T09:39:50;14.33;86.04
77523;SHT31;66637;-29.628;-49.938;2023-06-14T09:42:21;14.36;86.04
77523;SHT31;66637;-29.628;-49.938;2023-06-14T09:44:58;14.34;86.02
77523;SHT31;66637;-29.628;-49.938;2023-06-14T09:47:55;14.39;86.13
77523;SHT31;66637;-29.628;-49.938;2023-06-14T09:50:35;14.46;86.17
77523;SHT31;66637;-29.628;-49.938;2023-06-14T09:53:11;14.53;86.21
77523;SHT31;66637;-29.628;-49.938;2023-06-14T09:55:42;14.52;86.13
77523;SHT31;66637;-29.628;-49.938;2023-06-14T09:58:19;14.66;86.03
77523;SHT31;66637;-29.628;-49.938;2023-06-14T10:01:01;14.79;85.78
77523;SHT31;66637;-29.628;-49.938;2023-06-14T10:03:41;14.73;85.49
77523;SHT31;66637;-29.628;-49.938;2023-06-14T10:06:17;14.84;86.18
77523;SHT31;66637;-29.628;-49.938;2023-06-14T10:09:00;15.68;81.19
77523;SHT31;66637;-29.628;-49.938;2023-06-14T10:11:40;16.41;78.76
77523;SHT31;66637;-29.628;-49.938;2023-06-14T10:14:17;16.56;78.35
77523;SHT31;66637;-29.628;-49.938;2023-06-14T10:17:12;16.92;76.76
77523;SHT31;66637;-29.628;-49.938;2023-06-14T10:19:53;16.89;76.28
77523;SHT31;66637;-29.628;-49.938;2023-06-14T10:22:38;16.98;76.39
77523;SHT31;66637;-29.628;-49.938;2023-06-14T10:25:29;17.11;75.51
77523;SHT31;66637;-29.628;-49.938;2023-06-14T10:28:18;17.11;74.69
77523;SHT31;66637;-29.628;-49.938;2023-06-14T10:31:05;17.18;74.68
77523;SHT31;66637;-29.628;-49.938;2023-06-14T10:33:56;17.23;74.09
77523;SHT31;66637;-29.628;-49.938;2023-06-14T10:36:28;17.26;73.24
77523;SHT31;66637;-29.628;-49.938;2023-06-14T10:39:19;17.21;73.66
77523;SHT31;66637;-29.628;-49.938;2023-06-14T10:41:54;17.12;74.14
77523;SHT31;66637;-29.628;-49.938;2023-06-14T10:44:30;17.14;72.43
77523;SHT31;66637;-29.628;-49.938;2023-06-14T10:47:07;17.15;74.06
77523;SHT31;66637;-29.628;-49.938;2023-06-14T10:49:52;17.12;73.64
77523;SHT31;66637;-29.628;-49.938;2023-06-14T10:52:27;17.05;71.89
77523;SHT31;66637;-29.628;-49.938;2023-06-14T10:57:47;17.14;75.06
77523;SHT31;66637;-29.628;-49.938;2023-06-14T11:00:24;17.16;75.04
77523;SHT31;66637;-29.628;-49.938;2023-06-14T11:11:31;17.47;73.91
77523;SHT31;66637;-29.628;-49.938;2023-06-14T11:14:05;17.50;72.56
77523;SHT31;66637;-29.628;-49.938;2023-06-14T11:16:38;17.52;72.51
77523;SHT31;66637;-29.628;-49.938;2023-06-14T11:19:19;17.55;71.53
77523;SHT31;66637;-29.628;-49.938;2023-06-14T11:21:52;17.63;71.22
77523;SHT31;66637;-29.628;-49.938;2023-06-14T11:24:23;17.55;71.57
77523;SHT31;66637;-29.628;-49.938;2023-06-14T11:26:57;17.56;70.92
77523;SHT31;66637;-29.628;-49.938;2023-06-14T11:29:30;17.62;71.96
77523;SHT31;66637;-29.628;-49.938;2023-06-14T11:32:01;17.61;72.09
77523;SHT31;66637;-29.628;-49.938;2023-06-14T11:34:33;17.65;71.14
77523;SHT31;66637;-29.628;-49.938;2023-06-14T11:37:03;17.63;71.84
77523;SHT31;66637;-29.628;-49.938;2023-06-14T11:39:35;17.73;69.80
77523;SHT31;66637;-29.628;-49.938;2023-06-14T11:42:14;17.70;70.39
77523;SHT31;66637;-29.628;-49.938;2023-06-14T11:44:47;17.72;71.04
77523;SHT31;66637;-29.628;-49.938;2023-06-14T11:47:18;17.70;70.96
77523;SHT31;66637;-29.628;-49.938;2023-06-14T11:49:53;17.70;70.77
77523;SHT31;66637;-29.628;-49.938;2023-06-14T11:52:41;17.77;69.02
77523;SHT31;66637;-29.628;-49.938;2023-06-14T11:55:16;17.77;69.76
77523;SHT31;66637;-29.628;-49.938;2023-06-14T11:57:56;17.82;68.57
77523;SHT31;66637;-29.628;-49.938;2023-06-14T12:00:27;17.80;68.79
77523;SHT31;66637;-29.628;-49.938;2023-06-14T12:03:03;17.80;69.68
77523;SHT31;66637;-29.628;-49.938;2023-06-14T12:05:35;17.82;69.33
77523;SHT31;66637;-29.628;-49.938;2023-06-14T12:08:06;17.89;70.36
77523;SHT31;66637;-29.628;-49.938;2023-06-14T12:10:41;17.80;70.60
77523;SHT31;66637;-29.628;-49.938;2023-06-14T12:13:20;17.90;69.66
77523;SHT31;66637;-29.628;-49.938;2023-06-14T12:15:57;17.87;71.46
77523;SHT31;66637;-29.628;-49.938;2023-06-14T12:18:35;17.86;70.85
77523;SHT31;66637;-29.628;-49.938;2023-06-14T12:21:09;17.90;69.89
77523;SHT31;66637;-29.628;-49.938;2023-06-14T12:23:47;17.85;71.00
77523;SHT31;66637;-29.628;-49.938;2023-06-14T12:26:19;17.87;70.59
77523;SHT31;66637;-29.628;-49.938;2023-06-14T12:28:52;17.96;70.23
77523;SHT31;66637;-29.628;-49.938;2023-06-14T12:31:31;17.94;70.04
77523;SHT31;66637;-29.628;-49.938;2023-06-14T12:34:18;17.98;69.11
77523;SHT31;66637;-29.628;-49.938;2023-06-14T12:36:55;18.01;70.23
77523;SHT31;66637;-29.628;-49.938;2023-06-14T12:39:36;18.03;68.68
77523;SHT31;66637;-29.628;-49.938;2023-06-14T12:42:20;17.96;69.07
77523;SHT31;66637;-29.628;-49.938;2023-06-14T12:44:51;17.93;70.56
77523;SHT31;66637;-29.628;-49.938;2023-06-14T12:47:25;17.97;69.21
77523;SHT31;66637;-29.628;-49.938;2023-06-14T12:50:00;17.93;69.45
77523;SHT31;66637;-29.628;-49.938;2023-06-14T12:52:57;17.91;70.22
77523;SHT31;66637;-29.628;-49.938;2023-06-14T12:55:29;17.90;71.49
77523;SHT31;66637;-29.628;-49.938;2023-06-14T12:58:02;17.87;68.69
77523;SHT31;66637;-29.628;-49.938;2023-06-14T13:00:35;17.94;69.65
77523;SHT31;66637;-29.628;-49.938;2023-06-14T13:03:05;17.91;70.78
77523;SHT31;66637;-29.628;-49.938;2023-06-14T13:05:36;17.82;69.69
77523;SHT31;66637;-29.628;-49.938;2023-06-14T13:08:08;17.93;69.02
77523;SHT31;66637;-29.628;-49.938;2023-06-14T13:10:40;17.94;69.71
77523;SHT31;66637;-29.628;-49.938;2023-06-14T13:13:12;18.01;67.47
77523;SHT31;66637;-29.628;-49.938;2023-06-14T13:15:44;18.06;68.28
77523;SHT31;66637;-29.628;-49.938;2023-06-14T13:18:18;18.18;67.43
77523;SHT31;66637;-29.628;-49.938;2023-06-14T13:20:53;18.27;65.46
77523;SHT31;66637;-29.628;-49.938;2023-06-14T13:23:33;18.30;67.71
77523;SHT31;66637;-29.628;-49.938;2023-06-14T13:26:08;18.21;67.97
77523;SHT31;66637;-29.628;-49.938;2023-06-14T13:28:40;18.16;69.33
77523;SHT31;66637;-29.628;-49.938;2023-06-14T13:31:11;18.17;68.20
77523;SHT31;66637;-29.628;-49.938;2023-06-14T13:33:43;18.23;67.58
77523;SHT31;66637;-29.628;-49.938;2023-06-14T13:36:14;18.23;67.58
77523;SHT31;66637;-29.628;-49.938;2023-06-14T13:38:48;18.21;67.75
77523;SHT31;66637;-29.628;-49.938;2023-06-14T13:41:25;18.24;68.19
77523;SHT31;66637;-29.628;-49.938;2023-06-14T13:44:02;18.23;68.98
77523;SHT31;66637;-29.628;-49.938;2023-06-14T13:46:36;18.21;69.16
77523;SHT31;66637;-29.628;-49.938;2023-06-14T13:49:08;18.17;68.64
77523;SHT31;66637;-29.628;-49.938;2023-06-14T13:51:42;18.24;68.51
77523;SHT31;66637;-29.628;-49.938;2023-06-14T13:54:14;18.26;67.93
77523;SHT31;66637;-29.628;-49.938;2023-06-14T13:56:45;18.27;66.45
77523;SHT31;66637;-29.628;-49.938;2023-06-14T13:59:16;18.30;67.97
77523;SHT31;66637;-29.628;-49.938;2023-06-14T14:01:49;18.31;69.86
77523;SHT31;66637;-29.628;-49.938;2023-06-14T14:04:21;18.27;72.20
77523;SHT31;66637;-29.628;-49.938;2023-06-14T14:06:52;18.17;73.08
77523;SHT31;66637;-29.628;-49.938;2023-06-14T14:09:23;18.16;73.28
77523;SHT31;66637;-29.628;-49.938;2023-06-14T14:11:54;18.28;74.09
77523;SHT31;66637;-29.628;-49.938;2023-06-14T14:14:27;18.17;73.62
77523;SHT31;66637;-29.628;-49.938;2023-06-14T14:16:58;18.04;73.80
77523;SHT31;66637;-29.628;-49.938;2023-06-14T14:19:29;18.14;73.98
77523;SHT31;66637;-29.628;-49.938;2023-06-14T14:22:01;18.04;74.63
77523;SHT31;66637;-29.628;-49.938;2023-06-14T14:24:32;18.10;74.32
77523;SHT31;66637;-29.628;-49.938;2023-06-14T14:27:03;17.98;74.04
77523;SHT31;66637;-29.628;-49.938;2023-06-14T14:29:34;17.96;75.14
77523;SHT31;66637;-29.628;-49.938;2023-06-14T14:32:07;17.86;75.61
77523;SHT31;66637;-29.628;-49.938;2023-06-14T14:34:43;17.82;75.75
77523;SHT31;66637;-29.628;-49.938;2023-06-14T14:37:19;17.76;76.03
77523;SHT31;66637;-29.628;-49.938;2023-06-14T14:39:53;17.70;76.03
77523;SHT31;66637;-29.628;-49.938;2023-06-14T14:42:25;17.72;76.44
77523;SHT31;66637;-29.628;-49.938;2023-06-14T14:45:00;17.86;76.15
77523;SHT31;66637;-29.628;-49.938;2023-06-14T14:47:34;17.85;75.79
77523;SHT31;66637;-29.628;-49.938;2023-06-14T14:50:06;17.91;76.10
77523;SHT31;66637;-29.628;-49.938;2023-06-14T14:52:35;17.94;75.68
77523;SHT31;66637;-29.628;-49.938;2023-06-14T14:55:07;17.85;75.75
77523;SHT31;66637;-29.628;-49.938;2023-06-14T14:57:46;17.91;76.06
77523;SHT31;66637;-29.628;-49.938;2023-06-14T15:00:18;17.91;76.43
77523;SHT31;66637;-29.628;-49.938;2023-06-14T15:02:48;17.97;76.00
77523;SHT31;66637;-29.628;-49.938;2023-06-14T15:05:18;18.10;75.49
77523;SHT31;66637;-29.628;-49.938;2023-06-14T15:07:54;18.14;75.35
77523;SHT31;66637;-29.628;-49.938;2023-06-14T15:10:26;18.20;75.31
77523;SHT31;66637;-29.628;-49.938;2023-06-14T15:12:58;18.11;75.37
77523;SHT31;66637;-29.628;-49.938;2023-06-14T15:15:29;18.07;75.51
77523;SHT31;66637;-29.628;-49.938;2023-06-14T15:18:00;18.01;76.08
77523;SHT31;66637;-29.628;-49.938;2023-06-14T15:20:32;17.98;76.28
77523;SHT31;66637;-29.628;-49.938;2023-06-14T15:23:04;17.87;76.51
77523;SHT31;66637;-29.628;-49.938;2023-06-14T15:25:35;17.75;76.99
77523;SHT31;66637;-29.628;-49.938;2023-06-14T15:28:04;17.72;73.54
77523;SHT31;66637;-29.628;-49.938;2023-06-14T15:30:37;17.63;71.61
77523;SHT31;66637;-29.628;-49.938;2023-06-14T15:33:07;17.65;74.75
77523;SHT31;66637;-29.628;-49.938;2023-06-14T15:35:40;17.56;75.05
77523;SHT31;66637;-29.628;-49.938;2023-06-14T15:38:23;17.62;76.36
77523;SHT31;66637;-29.628;-49.938;2023-06-14T15:40:55;17.45;75.08
77523;SHT31;66637;-29.628;-49.938;2023-06-14T15:43:25;17.56;73.31
77523;SHT31;66637;-29.628;-49.938;2023-06-14T15:45:56;17.49;70.56